sensor_id;sensor_type;location;lat;lon;timestamp;P1;durP1;ratioP1;P2;durP2;ratioP2
46597;SDS011;32318;48.858;8.252;2022-11-12T00:04:45;18.42;;;4.88;;
46597;SDS011;32318;48.858;8.252;2022-11-12T00:12:45;30.50;;;5.05;;
46597;SDS011;32318;48.858;8.252;2022-11-12T00:20:45;29.42;;;5.93;;
46597;SDS011;32318;48.858;8.252;2022-11-12T00:28:46;13.13;;;4.90;;
46597;SDS011;32318;48.858;8.252;2022-11-12T00:36:46;14.30;;;4.88;;
46597;SDS011;32318;48.858;8.252;2022-11-12T00:44:46;14.70;;;4.57;;
46597;SDS011;32318;48.858;8.252;2022-11-12T00:52:50;7.38;;;4.18;;
46597;SDS011;32318;48.858;8.252;2022-11-12T01:00:51;61.65;;;5.25;;
46597;SDS011;32318;48.858;8.252;2022-11-12T01:08:53;40.55;;;5.07;;
46597;SDS011;32318;48.858;8.252;2022-11-12T01:16:54;58.28;;;5.90;;
46597;SDS011;32318;48.858;8.252;2022-11-12T01:24:54;22.38;;;4.72;;
46597;SDS011;32318;48.858;8.252;2022-11-12T01:32:55;32.85;;;4.40;;
46597;SDS011;32318;48.858;8.252;2022-11-12T01:40:55;58.20;;;5.13;;
46597;SDS011;32318;48.858;8.252;2022-11-12T01:48:57;41.58;;;5.32;;
46597;SDS011;32318;48.858;8.252;2022-11-12T01:57:01;17.53;;;4.43;;
46597;SDS011;32318;48.858;8.252;2022-11-12T02:05:04;16.50;;;4.32;;
46597;SDS011;32318;48.858;8.252;2022-11-12T02:13:06;7.50;;;4.60;;
46597;SDS011;32318;48.858;8.252;2022-11-12T02:21:26;6.38;;;4.00;;
46597;SDS011;32318;48.858;8.252;2022-11-12T02:29:27;15.65;;;4.90;;
46597;SDS011;32318;48.858;8.252;2022-11-12T02:37:27;30.17;;;4.72;;
46597;SDS011;32318;48.858;8.252;2022-11-12T02:45:28;37.35;;;4.82;;
46597;SDS011;32318;48.858;8.252;2022-11-12T02:53:29;13.75;;;4.80;;
46597;SDS011;32318;48.858;8.252;2022-11-12T03:01:31;7.50;;;4.50;;
46597;SDS011;32318;48.858;8.252;2022-11-12T03:09:31;23.15;;;4.63;;
46597;SDS011;32318;48.858;8.252;2022-11-12T03:17:35;19.40;;;5.18;;
46597;SDS011;32318;48.858;8.252;2022-11-12T03:25:35;23.52;;;5.03;;
46597;SDS011;32318;48.858;8.252;2022-11-12T03:33:36;20.80;;;7.50;;
46597;SDS011;32318;48.858;8.252;2022-11-12T03:41:36;14.20;;;4.70;;
46597;SDS011;32318;48.858;8.252;2022-11-12T03:49:37;20.38;;;5.10;;
46597;SDS011;32318;48.858;8.252;2022-11-12T03:57:37;14.45;;;5.88;;
46597;SDS011;32318;48.858;8.252;2022-11-12T04:05:37;34.63;;;5.57;;
46597;SDS011;32318;48.858;8.252;2022-11-12T04:13:56;15.85;;;5.45;;
46597;SDS011;32318;48.858;8.252;2022-11-12T04:30:03;19.55;;;5.28;;
46597;SDS011;32318;48.858;8.252;2022-11-12T04:38:16;9.25;;;5.10;;
46597;SDS011;32318;48.858;8.252;2022-11-12T04:46:16;8.95;;;4.90;;
46597;SDS011;32318;48.858;8.252;2022-11-12T04:54:16;8.18;;;4.40;;
46597;SDS011;32318;48.858;8.252;2022-11-12T05:02:16;11.80;;;4.28;;
46597;SDS011;32318;48.858;8.252;2022-11-12T05:10:17;22.35;;;5.20;;
46597;SDS011;32318;48.858;8.252;2022-11-12T05:18:17;13.90;;;5.32;;
46597;SDS011;32318;48.858;8.252;2022-11-12T05:26:18;12.73;;;4.57;;
46597;SDS011;32318;48.858;8.252;2022-11-12T05:34:18;21.73;;;5.60;;
46597;SDS011;32318;48.858;8.252;2022-11-12T05:42:18;18.55;;;5.15;;
46597;SDS011;32318;48.858;8.252;2022-11-12T05:50:18;13.88;;;5.78;;
46597;SDS011;32318;48.858;8.252;2022-11-12T05:58:19;16.70;;;5.20;;
46597;SDS011;32318;48.858;8.252;2022-11-12T06:06:19;13.15;;;5.72;;
46597;SDS011;32318;48.858;8.252;2022-11-12T06:14:19;9.80;;;5.03;;
46597;SDS011;32318;48.858;8.252;2022-11-12T06:22:19;12.57;;;5.50;;
46597;SDS011;32318;48.858;8.252;2022-11-12T06:30:20;15.10;;;5.55;;
46597;SDS011;32318;48.858;8.252;2022-11-12T06:38:20;24.27;;;5.63;;
46597;SDS011;32318;48.858;8.252;2022-11-12T06:46:20;16.60;;;6.07;;
46597;SDS011;32318;48.858;8.252;2022-11-12T06:54:21;35.63;;;6.15;;
46597;SDS011;32318;48.858;8.252;2022-11-12T07:02:21;19.23;;;6.28;;
46597;SDS011;32318;48.858;8.252;2022-11-12T07:10:21;33.00;;;6.28;;
46597;SDS011;32318;48.858;8.252;2022-11-12T07:18:22;17.48;;;7.57;;
46597;SDS011;32318;48.858;8.252;2022-11-12T07:26:23;21.40;;;8.95;;
46597;SDS011;32318;48.858;8.252;2022-11-12T07:34:26;22.77;;;8.65;;
46597;SDS011;32318;48.858;8.252;2022-11-12T07:42:26;13.93;;;7.20;;
46597;SDS011;32318;48.858;8.252;2022-11-12T07:50:26;15.48;;;6.90;;
46597;SDS011;32318;48.858;8.252;2022-11-12T07:58:28;13.05;;;5.53;;
46597;SDS011;32318;48.858;8.252;2022-11-12T08:06:30;13.50;;;5.93;;
46597;SDS011;32318;48.858;8.252;2022-11-12T08:14:31;15.20;;;5.65;;
46597;SDS011;32318;48.858;8.252;2022-11-12T08:22:31;9.70;;;5.90;;
46597;SDS011;32318;48.858;8.252;2022-11-12T08:30:31;11.13;;;5.45;;
46597;SDS011;32318;48.858;8.252;2022-11-12T08:38:32;15.60;;;5.75;;
46597;SDS011;32318;48.858;8.252;2022-11-12T08:46:32;11.43;;;6.20;;
46597;SDS011;32318;48.858;8.252;2022-11-12T08:54:33;13.25;;;5.90;;
46597;SDS011;32318;48.858;8.252;2022-11-12T09:02:33;19.30;;;6.35;;
46597;SDS011;32318;48.858;8.252;2022-11-12T09:10:33;14.70;;;7.80;;
46597;SDS011;32318;48.858;8.252;2022-11-12T09:18:35;17.90;;;7.68;;
46597;SDS011;32318;48.858;8.252;2022-11-12T09:26:36;12.93;;;7.68;;
46597;SDS011;32318;48.858;8.252;2022-11-12T09:34:36;24.20;;;9.70;;
46597;SDS011;32318;48.858;8.252;2022-11-12T09:42:36;27.55;;;12.02;;
46597;SDS011;32318;48.858;8.252;2022-11-12T09:50:39;20.90;;;10.95;;
46597;SDS011;32318;48.858;8.252;2022-11-12T09:58:48;27.25;;;13.15;;
46597;SDS011;32318;48.858;8.252;2022-11-12T10:23:35;27.95;;;12.95;;
46597;SDS011;32318;48.858;8.252;2022-11-12T10:31:40;32.90;;;13.30;;
46597;SDS011;32318;48.858;8.252;2022-11-12T10:39:41;33.03;;;13.63;;
46597;SDS011;32318;48.858;8.252;2022-11-12T10:47:45;30.20;;;13.55;;
46597;SDS011;32318;48.858;8.252;2022-11-12T10:55:55;30.65;;;14.63;;
46597;SDS011;32318;48.858;8.252;2022-11-12T11:03:57;30.60;;;13.85;;
46597;SDS011;32318;48.858;8.252;2022-11-12T11:11:57;35.55;;;14.73;;
46597;SDS011;32318;48.858;8.252;2022-11-12T11:19:58;33.33;;;13.40;;
46597;SDS011;32318;48.858;8.252;2022-11-12T11:53:20;42.72;;;15.98;;
46597;SDS011;32318;48.858;8.252;2022-11-12T12:26:02;38.03;;;17.23;;
46597;SDS011;32318;48.858;8.252;2022-11-12T12:34:21;36.80;;;16.80;;
46597;SDS011;32318;48.858;8.252;2022-11-12T12:42:46;41.72;;;17.77;;
46597;SDS011;32318;48.858;8.252;2022-11-12T12:58:53;35.15;;;16.52;;
46597;SDS011;32318;48.858;8.252;2022-11-12T13:06:54;37.28;;;16.27;;
46597;SDS011;32318;48.858;8.252;2022-11-12T13:15:08;35.93;;;15.93;;
46597;SDS011;32318;48.858;8.252;2022-11-12T13:32:29;33.97;;;15.35;;
46597;SDS011;32318;48.858;8.252;2022-11-12T13:48:53;41.85;;;18.30;;
46597;SDS011;32318;48.858;8.252;2022-11-12T14:05:24;32.92;;;15.00;;
46597;SDS011;32318;48.858;8.252;2022-11-12T14:21:33;39.78;;;16.65;;
46597;SDS011;32318;48.858;8.252;2022-11-12T14:29:33;39.40;;;15.65;;
46597;SDS011;32318;48.858;8.252;2022-11-12T14:37:35;36.00;;;15.70;;
46597;SDS011;32318;48.858;8.252;2022-11-12T14:45:37;38.00;;;16.73;;
46597;SDS011;32318;48.858;8.252;2022-11-12T14:53:47;38.33;;;17.02;;
46597;SDS011;32318;48.858;8.252;2022-11-12T15:02:01;49.28;;;18.88;;
46597;SDS011;32318;48.858;8.252;2022-11-12T15:18:59;40.92;;;16.50;;
46597;SDS011;32318;48.858;8.252;2022-11-12T15:27:46;43.85;;;18.17;;
46597;SDS011;32318;48.858;8.252;2022-11-12T15:35:41;39.97;;;16.60;;
46597;SDS011;32318;48.858;8.252;2022-11-12T15:43:43;40.40;;;17.70;;
46597;SDS011;32318;48.858;8.252;2022-11-12T15:51:43;40.65;;;16.17;;
46597;SDS011;32318;48.858;8.252;2022-11-12T15:59:44;36.72;;;16.67;;
46597;SDS011;32318;48.858;8.252;2022-11-12T16:07:50;41.83;;;16.65;;
46597;SDS011;32318;48.858;8.252;2022-11-12T16:15:51;34.17;;;15.02;;
46597;SDS011;32318;48.858;8.252;2022-11-12T16:23:52;37.85;;;15.25;;
46597;SDS011;32318;48.858;8.252;2022-11-12T16:31:52;37.17;;;14.98;;
46597;SDS011;32318;48.858;8.252;2022-11-12T16:39:52;33.70;;;15.27;;
46597;SDS011;32318;48.858;8.252;2022-11-12T16:56:21;31.05;;;14.10;;
46597;SDS011;32318;48.858;8.252;2022-11-12T17:04:25;30.92;;;13.52;;
46597;SDS011;32318;48.858;8.252;2022-11-12T17:12:25;28.15;;;13.70;;
46597;SDS011;32318;48.858;8.252;2022-11-12T17:20:25;27.60;;;13.27;;
46597;SDS011;32318;48.858;8.252;2022-11-12T17:28:26;35.85;;;16.20;;
46597;SDS011;32318;48.858;8.252;2022-11-12T17:36:28;30.67;;;14.93;;
46597;SDS011;32318;48.858;8.252;2022-11-12T17:44:28;29.38;;;15.35;;
46597;SDS011;32318;48.858;8.252;2022-11-12T17:52:29;26.80;;;13.98;;
46597;SDS011;32318;48.858;8.252;2022-11-12T18:00:29;26.40;;;13.10;;
46597;SDS011;32318;48.858;8.252;2022-11-12T18:08:30;22.88;;;12.02;;
46597;SDS011;32318;48.858;8.252;2022-11-12T18:16:30;22.88;;;11.70;;
46597;SDS011;32318;48.858;8.252;2022-11-12T18:24:30;30.95;;;14.82;;
46597;SDS011;32318;48.858;8.252;2022-11-12T18:32:31;32.25;;;14.93;;
46597;SDS011;32318;48.858;8.252;2022-11-12T18:40:31;37.08;;;16.58;;
46597;SDS011;32318;48.858;8.252;2022-11-12T18:48:32;27.42;;;13.93;;
46597;SDS011;32318;48.858;8.252;2022-11-12T18:56:33;27.35;;;12.38;;
46597;SDS011;32318;48.858;8.252;2022-11-12T19:04:36;23.20;;;12.07;;
46597;SDS011;32318;48.858;8.252;2022-11-12T19:12:37;22.65;;;11.80;;
46597;SDS011;32318;48.858;8.252;2022-11-12T19:20:37;23.42;;;12.25;;
46597;SDS011;32318;48.858;8.252;2022-11-12T19:28:38;23.85;;;12.30;;
46597;SDS011;32318;48.858;8.252;2022-11-12T19:36:38;25.60;;;12.77;;
46597;SDS011;32318;48.858;8.252;2022-11-12T19:44:40;25.85;;;13.00;;
46597;SDS011;32318;48.858;8.252;2022-11-12T19:52:40;29.33;;;13.65;;
46597;SDS011;32318;48.858;8.252;2022-11-12T20:00:40;27.67;;;12.07;;
46597;SDS011;32318;48.858;8.252;2022-11-12T20:08:41;32.03;;;13.25;;
46597;SDS011;32318;48.858;8.252;2022-11-12T20:16:41;27.63;;;13.18;;
46597;SDS011;32318;48.858;8.252;2022-11-12T20:24:41;26.52;;;13.27;;
46597;SDS011;32318;48.858;8.252;2022-11-12T20:32:41;34.63;;;15.25;;
46597;SDS011;32318;48.858;8.252;2022-11-12T20:40:42;35.22;;;18.20;;
46597;SDS011;32318;48.858;8.252;2022-11-12T20:48:42;33.17;;;13.57;;
46597;SDS011;32318;48.858;8.252;2022-11-12T20:56:42;34.95;;;13.32;;
46597;SDS011;32318;48.858;8.252;2022-11-12T21:04:43;30.88;;;13.73;;
46597;SDS011;32318;48.858;8.252;2022-11-12T21:12:43;27.80;;;12.77;;
46597;SDS011;32318;48.858;8.252;2022-11-12T21:20:44;25.45;;;12.60;;
46597;SDS011;32318;48.858;8.252;2022-11-12T21:28:53;27.60;;;11.68;;
46597;SDS011;32318;48.858;8.252;2022-11-12T21:36:54;25.77;;;10.25;;
46597;SDS011;32318;48.858;8.252;2022-11-12T21:44:54;20.38;;;10.27;;
46597;SDS011;32318;48.858;8.252;2022-11-12T21:52:55;24.50;;;10.63;;
46597;SDS011;32318;48.858;8.252;2022-11-12T22:01:04;24.60;;;11.05;;
46597;SDS011;32318;48.858;8.252;2022-11-12T22:09:10;25.15;;;10.23;;
46597;SDS011;32318;48.858;8.252;2022-11-12T22:17:10;29.08;;;13.07;;
46597;SDS011;32318;48.858;8.252;2022-11-12T22:25:11;31.58;;;12.35;;
46597;SDS011;32318;48.858;8.252;2022-11-12T22:33:11;44.13;;;11.30;;
46597;SDS011;32318;48.858;8.252;2022-11-12T22:41:13;31.00;;;11.75;;
46597;SDS011;32318;48.858;8.252;2022-11-12T22:49:14;35.97;;;11.27;;
46597;SDS011;32318;48.858;8.252;2022-11-12T22:57:14;30.58;;;12.70;;
46597;SDS011;32318;48.858;8.252;2022-11-12T23:05:15;31.55;;;11.43;;
46597;SDS011;32318;48.858;8.252;2022-11-12T23:13:15;29.45;;;11.88;;
46597;SDS011;32318;48.858;8.252;2022-11-12T23:21:17;29.42;;;12.30;;
46597;SDS011;32318;48.858;8.252;2022-11-12T23:29:19;39.88;;;12.57;;
46597;SDS011;32318;48.858;8.252;2022-11-12T23:37:19;26.35;;;12.25;;
46597;SDS011;32318;48.858;8.252;2022-11-12T23:45:19;25.15;;;12.27;;
46597;SDS011;32318;48.858;8.252;2022-11-12T23:53:20;32.13;;;11.65;;
